Deltona, FL (32725)

10:09 PM EDT on August 31, 2016 (GMT -0400)
Hupernikaos/Deltona | | Change Station

Elev 52 ft 28.90 °N, 81.27 °W | Updated 2 minutes ago

Light Rain
Light Rain
75.4 °F
Feels Like 75 °F
N
0.0
Wind Variable Wind from NNE

Today
High -- | Low -- °F
--% Chance of Precip.
Yesterday
High -- | Low -- °F
Precip. -- in
Pressure 29.96 in
Visibility 10.0 miles
Clouds Few 1500 ft
Scattered Clouds 4800 ft
Overcast 9000 ft
Heat Index 75 °F
Dew Point 72 °F
Humidity 90%
Rainfall 0.33 in
Snow Depth Not available.
7:02 AM 7:47 PM
Waning Crescent, 0% visible
METAR KSFB 010153Z 24004KT 10SM -RA FEW015 SCT048 OVC090 24/23 A2996 RMK AO2 SLP145 P0001 T02440233
Pressure 29.96 in
Visibility 10.0 miles
Clouds Few 1500 ft
Scattered Clouds 4800 ft
Overcast 9000 ft
Heat Index 75 °F
Dew Point 72 °F
Humidity 90%
Rainfall 0.33 in
Snow Depth Not available.
7:02 AM 7:47 PM
Waning Crescent, 0% visible
METAR KSFB 010153Z 24004KT 10SM -RA FEW015 SCT048 OVC090 24/23 A2996 RMK AO2 SLP145 P0001 T02440233
A tropical storm warning and hurricane watch is in effect for parts of the northern Florida Gulf Coast as Tropical Storm Hermine intensifies in the eastern Gulf of Mexico. A tropical storm watch is in effect for parts of the Atlantic coast of Georgia and Florida, as Hermine is expected to move near or just inland from the Southeast U.S. Coast on Friday and Friday night. Very heavy rains are possible near Hermine's path.

10-Day Weather Forecast

Almanac

Astronomy

Aug. 31, 2016 Rise Set
Actual Time
Civil Twilight
Nautical Twilight
Astronomical Twilight
Moon
Length of Visible Light
Length of Day
Tomorrow will be .
, % of the Moon is Illuminated

Today's Extremes

State Highs State Lows

Community

WunderPhotos

Upload Photos

1,936,268 photos uploaded!

WunderBlog® & News

Nearby

Air Quality

  Air Quality AQ Index Pollutant
Not available.

Snow Depth

Station Depth Elevation

Earthquake Activity

City Distance Mag. Time & Date
Minimum magnitude displayed is 2.5.

Coastal Water Temperatures

Place Temperature

Stations

Nearby Weather Stations

Station Location Temp. Windchill Dew Point Humidity Wind Precip. Elev Updated Type
                   

Watches & Warnings

There are currently no watches in effect.